Time;durP1;ratioP1;P1;durP2;ratioP2;P2;SDS_P1;SDS_P2;PMS_P1;PMS_P2;Temp;Humidity;BMP_temperature;BMP_pressure;BME280_temperature;BME280_humidity;BME280_pressure;Samples;Min_cycle;Max_cycle;Signal;HPM_P1;HPM_P2
2023/12/19 00:01:19;;;;;;;10.18;5.13;;;;;;;;;;4979294;28;20030;-80
2023/12/19 00:03:44;;;;;;;13.63;5.82;;;;;;;;;;4980882;28;20034;-80
2023/12/19 00:06:09;;;;;;;8.63;4.70;;;;;;;;;;4997640;28;20029;-79
2023/12/19 00:08:36;;;;;;;9.77;5.07;;;;;;;;;;4998308;28;20022;-80
2023/12/19 00:11:01;;;;;;;9.80;5.22;;;;;;;;;;4996765;28;20041;-81
2023/12/19 00:13:29;;;;;;;11.55;5.32;;;;;;;;;;4998556;28;20026;-81
2023/12/19 00:15:57;;;;;;;13.82;5.22;;;;;;;;;;4998725;28;20022;-80
2023/12/19 00:18:22;;;;;;;12.30;5.80;;;;;;;;;;4997144;28;20046;-79
2023/12/19 00:20:47;;;;;;;9.82;5.53;;;;;;;;;;4998413;28;20382;-80
2023/12/19 00:23:13;;;;;;;9.63;5.32;;;;;;;;;;4998239;28;20030;-81
2023/12/19 00:25:38;;;;;;;10.40;5.32;;;;;;;;;;4987462;28;20053;-84
2023/12/19 00:28:03;;;;;;;9.50;5.15;;;;;;;;;;5004534;28;20026;-84
2023/12/19 00:30:29;;;;;;;10.27;5.13;;;;;;;;;;4989775;28;20033;-84
2023/12/19 00:32:54;;;;;;;12.77;5.50;;;;;;;;;;4989394;28;20022;-84
2023/12/19 00:35:19;;;;;;;8.68;5.28;;;;;;;;;;5007307;28;20022;-84
2023/12/19 00:37:44;;;;;;;9.02;4.85;;;;;;;;;;4989824;28;20053;-84
2023/12/19 00:40:12;;;;;;;10.80;5.40;;;;;;;;;;5007046;28;20030;-85
2023/12/19 00:42:38;;;;;;;10.30;5.40;;;;;;;;;;5005193;28;20450;-85
2023/12/19 00:45:04;;;;;;;9.60;4.68;;;;;;;;;;5004815;28;20026;-85
2023/12/19 00:47:30;;;;;;;11.52;5.32;;;;;;;;;;5005676;28;20402;-83
2023/12/19 00:49:55;;;;;;;10.93;5.32;;;;;;;;;;5004713;28;20033;-84
2023/12/19 00:52:20;;;;;;;10.20;4.95;;;;;;;;;;5004082;28;20061;-84
2023/12/19 00:54:45;;;;;;;12.85;5.05;;;;;;;;;;5003200;28;20082;-84
2023/12/19 00:57:11;;;;;;;9.40;5.10;;;;;;;;;;4986775;28;20030;-83
2023/12/19 00:59:36;;;;;;;9.77;5.28;;;;;;;;;;5004591;28;20034;-84
2023/12/19 01:02:01;;;;;;;10.90;5.30;;;;;;;;;;5005483;28;20053;-84
2023/12/19 01:04:27;;;;;;;10.30;5.47;;;;;;;;;;5005585;28;20260;-84
2023/12/19 01:06:52;;;;;;;8.77;5.03;;;;;;;;;;5004184;28;20025;-84
2023/12/19 01:09:17;;;;;;;11.18;5.50;;;;;;;;;;4993708;28;20056;-84
2023/12/19 01:11:43;;;;;;;10.55;4.88;;;;;;;;;;5011193;28;20041;-85
2023/12/19 01:14:08;;;;;;;9.48;4.97;;;;;;;;;;5011918;28;20027;-84
2023/12/19 01:16:33;;;;;;;11.23;5.07;;;;;;;;;;5003911;28;20105;-81
2023/12/19 01:19:00;;;;;;;10.57;5.13;;;;;;;;;;4998312;28;20117;-80
2023/12/19 01:21:26;;;;;;;10.63;5.10;;;;;;;;;;4998242;28;20267;-80
2023/12/19 01:23:51;;;;;;;11.75;5.10;;;;;;;;;;4998415;28;20030;-80
2023/12/19 01:26:17;;;;;;;10.02;4.95;;;;;;;;;;4997685;28;20101;-80
2023/12/19 01:28:42;;;;;;;11.02;4.90;;;;;;;;;;4998329;28;20026;-80
2023/12/19 01:31:07;;;;;;;10.52;5.18;;;;;;;;;;4997260;28;20030;-80
2023/12/19 01:33:33;;;;;;;11.75;5.10;;;;;;;;;;4998965;28;20025;-79
2023/12/19 01:35:58;;;;;;;8.80;4.65;;;;;;;;;;4982448;28;20037;-81
2023/12/19 01:38:24;;;;;;;8.45;4.53;;;;;;;;;;5001536;28;20030;-79
2023/12/19 01:40:51;;;;;;;11.57;5.25;;;;;;;;;;4999080;28;20132;-80
2023/12/19 01:43:19;;;;;;;9.52;4.80;;;;;;;;;;5000313;28;20088;-80
2023/12/19 01:45:45;;;;;;;9.05;4.80;;;;;;;;;;4982761;28;20018;-80
2023/12/19 01:48:11;;;;;;;9.20;4.93;;;;;;;;;;4985093;28;20056;-84
2023/12/19 01:50:37;;;;;;;10.60;5.13;;;;;;;;;;4989188;28;20030;-83
2023/12/19 01:53:03;;;;;;;9.02;5.07;;;;;;;;;;4990092;28;20053;-84
2023/12/19 01:55:29;;;;;;;6.95;4.13;;;;;;;;;;4989018;28;20026;-83
2023/12/19 01:57:55;;;;;;;8.25;5.05;;;;;;;;;;5006985;28;20030;-84
2023/12/19 02:00:21;;;;;;;9.43;4.53;;;;;;;;;;5004161;28;20118;-84
2023/12/19 02:02:47;;;;;;;8.77;4.45;;;;;;;;;;5003976;28;20026;-83
2023/12/19 02:05:13;;;;;;;8.18;4.70;;;;;;;;;;4996525;28;20030;-82
2023/12/19 02:07:39;;;;;;;8.35;4.50;;;;;;;;;;5014270;28;20022;-84
2023/12/19 02:10:05;;;;;;;9.88;4.95;;;;;;;;;;4997560;28;20370;-82
2023/12/19 02:12:31;;;;;;;8.90;4.50;;;;;;;;;;5002695;28;20030;-83
2023/12/19 02:14:57;;;;;;;9.93;4.35;;;;;;;;;;4999396;28;20030;-84
2023/12/19 02:17:23;;;;;;;7.72;4.25;;;;;;;;;;4982575;28;20038;-83
2023/12/19 02:19:55;;;;;;;10.55;4.50;;;;;;;;;;4985860;28;20034;-83
2023/12/19 02:22:23;;;;;;;7.80;4.20;;;;;;;;;;4985692;28;20053;-84
2023/12/19 02:24:53;;;;;;;11.32;4.38;;;;;;;;;;4985803;28;20038;-85
2023/12/19 02:27:28;;;;;;;15.02;4.57;;;;;;;;;;5002267;28;20031;-85
2023/12/19 02:29:56;;;;;;;8.95;4.70;;;;;;;;;;4987117;28;20030;-83
2023/12/19 02:32:21;;;;;;;10.68;4.75;;;;;;;;;;5002602;28;20026;-85
2023/12/19 02:34:52;;;;;;;9.55;5.10;;;;;;;;;;5000493;28;20037;-84
2023/12/19 02:37:17;;;;;;;12.45;4.40;;;;;;;;;;4983278;28;20367;-85
2023/12/19 02:39:45;;;;;;;10.75;4.30;;;;;;;;;;4999794;28;20056;-85
2023/12/19 02:42:10;;;;;;;8.65;4.97;;;;;;;;;;4999973;28;20030;-85
2023/12/19 02:44:36;;;;;;;7.70;4.35;;;;;;;;;;5001509;28;20122;-84
2023/12/19 02:47:01;;;;;;;9.30;4.68;;;;;;;;;;5004516;28;20019;-84
2023/12/19 02:49:26;;;;;;;11.00;4.93;;;;;;;;;;5010837;28;20030;-84
2023/12/19 02:51:52;;;;;;;9.68;5.20;;;;;;;;;;5011126;28;20026;-85
2023/12/19 02:54:17;;;;;;;7.57;4.40;;;;;;;;;;5008711;28;20161;-85
2023/12/19 02:56:43;;;;;;;11.32;4.85;;;;;;;;;;4991374;28;20030;-84
2023/12/19 02:59:08;;;;;;;7.72;4.53;;;;;;;;;;5007722;28;20041;-84
2023/12/19 03:01:33;;;;;;;10.45;4.85;;;;;;;;;;5007116;28;20026;-84
2023/12/19 03:03:58;;;;;;;7.63;4.28;;;;;;;;;;5007472;28;20022;-84
2023/12/19 03:06:23;;;;;;;10.02;4.90;;;;;;;;;;5007269;28;20515;-85
2023/12/19 03:08:50;;;;;;;10.43;4.87;;;;;;;;;;5007344;28;20022;-84
2023/12/19 03:11:15;;;;;;;9.07;4.50;;;;;;;;;;5007175;28;20255;-84
2023/12/19 03:13:41;;;;;;;9.27;4.93;;;;;;;;;;4988428;28;20026;-84
2023/12/19 03:16:06;;;;;;;7.13;4.07;;;;;;;;;;4988841;28;20097;-85
2023/12/19 03:18:32;;;;;;;10.95;4.55;;;;;;;;;;5006355;28;20053;-84
2023/12/19 03:20:57;;;;;;;9.85;4.88;;;;;;;;;;5006061;28;20033;-84
2023/12/19 03:23:23;;;;;;;8.43;4.65;;;;;;;;;;4988484;28;20030;-84
2023/12/19 03:25:48;;;;;;;9.35;4.93;;;;;;;;;;5005739;28;20061;-85
2023/12/19 03:28:14;;;;;;;10.65;4.45;;;;;;;;;;5005338;28;20027;-84
2023/12/19 03:30:39;;;;;;;9.13;4.85;;;;;;;;;;5005779;28;20022;-83
2023/12/19 03:33:04;;;;;;;9.38;4.75;;;;;;;;;;4987886;28;20038;-83
2023/12/19 03:35:30;;;;;;;9.25;5.00;;;;;;;;;;5005385;28;20101;-84
2023/12/19 03:37:55;;;;;;;8.85;4.78;;;;;;;;;;5006713;28;20034;-84
2023/12/19 03:40:20;;;;;;;11.60;4.87;;;;;;;;;;5006438;28;20033;-85
2023/12/19 03:42:46;;;;;;;10.90;4.63;;;;;;;;;;5006236;28;20255;-83
2023/12/19 03:45:11;;;;;;;9.07;4.68;;;;;;;;;;5005566;28;20018;-84
2023/12/19 03:47:38;;;;;;;8.15;4.38;;;;;;;;;;5005295;28;20018;-84
2023/12/19 03:50:04;;;;;;;8.48;4.55;;;;;;;;;;5004544;28;20109;-84
2023/12/19 03:52:30;;;;;;;7.53;4.40;;;;;;;;;;5004070;28;20040;-84
2023/12/19 03:54:56;;;;;;;12.20;4.65;;;;;;;;;;4987016;28;20038;-83
2023/12/19 03:57:21;;;;;;;9.63;4.53;;;;;;;;;;5004836;28;20031;-84
2023/12/19 03:59:46;;;;;;;9.45;4.82;;;;;;;;;;5005213;28;20056;-85
2023/12/19 04:02:11;;;;;;;9.77;4.37;;;;;;;;;;5004503;28;20107;-84
2023/12/19 04:04:37;;;;;;;7.88;3.95;;;;;;;;;;5004313;28;20314;-82
2023/12/19 04:07:02;;;;;;;8.57;4.22;;;;;;;;;;5003208;28;20026;-85
2023/12/19 04:09:28;;;;;;;7.53;4.47;;;;;;;;;;4987905;28;20397;-83
2023/12/19 04:11:53;;;;;;;7.53;4.18;;;;;;;;;;5004509;28;20114;-84
2023/12/19 04:14:19;;;;;;;8.38;4.03;;;;;;;;;;5004494;28;20049;-84
2023/12/19 04:16:44;;;;;;;6.97;4.30;;;;;;;;;;4987584;28;20033;-84
2023/12/19 04:19:09;;;;;;;9.32;4.55;;;;;;;;;;4988427;28;20026;-84
2023/12/19 04:21:36;;;;;;;7.77;4.50;;;;;;;;;;5004736;28;20026;-85
2023/12/19 04:24:02;;;;;;;7.95;4.57;;;;;;;;;;4986092;28;20767;-84
2023/12/19 04:26:27;;;;;;;9.02;4.45;;;;;;;;;;5004395;28;20068;-84
2023/12/19 04:28:52;;;;;;;8.43;4.25;;;;;;;;;;5005375;28;20069;-84
2023/12/19 04:31:18;;;;;;;6.25;3.38;;;;;;;;;;5005355;28;20034;-84
2023/12/19 04:33:43;;;;;;;7.87;3.97;;;;;;;;;;5006633;28;20037;-86
2023/12/19 04:36:09;;;;;;;6.88;3.72;;;;;;;;;;5006080;28;20280;-85
2023/12/19 04:38:35;;;;;;;11.30;3.92;;;;;;;;;;5007750;28;20030;-84
2023/12/19 04:41:01;;;;;;;6.75;4.13;;;;;;;;;;5006548;28;20081;-84
2023/12/19 04:43:26;;;;;;;9.68;4.20;;;;;;;;;;5005932;28;20033;-83
2023/12/19 04:45:53;;;;;;;7.30;4.22;;;;;;;;;;5006661;28;20022;-85
2023/12/19 04:48:19;;;;;;;9.20;4.60;;;;;;;;;;5006201;28;20026;-83
2023/12/19 04:50:44;;;;;;;7.88;3.72;;;;;;;;;;4989015;28;20054;-85
2023/12/19 04:53:09;;;;;;;8.93;4.25;;;;;;;;;;5006330;28;20022;-85
2023/12/19 04:55:34;;;;;;;9.80;4.20;;;;;;;;;;5006687;28;20034;-84
2023/12/19 04:58:00;;;;;;;7.47;4.22;;;;;;;;;;5006639;28;20604;-85
2023/12/19 05:00:26;;;;;;;8.93;4.00;;;;;;;;;;5006094;28;20034;-83
2023/12/19 05:02:53;;;;;;;13.27;4.22;;;;;;;;;;5006604;28;20032;-84
2023/12/19 05:05:21;;;;;;;11.43;3.97;;;;;;;;;;5004013;28;20022;-84
2023/12/19 05:07:47;;;;;;;7.75;4.07;;;;;;;;;;5005889;28;20045;-84
2023/12/19 05:10:12;;;;;;;11.68;4.25;;;;;;;;;;5005889;28;20034;-85
2023/12/19 05:12:38;;;;;;;6.43;3.90;;;;;;;;;;5006130;28;20050;-82
2023/12/19 05:15:04;;;;;;;7.22;3.97;;;;;;;;;;5004993;28;20026;-86
2023/12/19 05:17:30;;;;;;;8.93;3.92;;;;;;;;;;5005357;28;20050;-84
2023/12/19 05:19:55;;;;;;;14.95;4.45;;;;;;;;;;5007912;28;20041;-86
2023/12/19 05:22:21;;;;;;;12.80;4.22;;;;;;;;;;5005124;28;20037;-84
2023/12/19 05:24:46;;;;;;;9.55;4.15;;;;;;;;;;4987615;28;20073;-84
2023/12/19 05:27:11;;;;;;;8.80;4.18;;;;;;;;;;5006582;28;20078;-85
2023/12/19 05:29:36;;;;;;;7.47;3.75;;;;;;;;;;4987105;28;20034;-84
2023/12/19 05:32:02;;;;;;;6.50;4.15;;;;;;;;;;5005479;28;20045;-85
2023/12/19 05:34:28;;;;;;;9.70;4.32;;;;;;;;;;5005166;28;20146;-84
2023/12/19 05:36:53;;;;;;;8.15;4.25;;;;;;;;;;4987602;28;20026;-83
2023/12/19 05:39:18;;;;;;;7.70;4.40;;;;;;;;;;5002727;28;20029;-84
2023/12/19 05:41:43;;;;;;;11.40;4.75;;;;;;;;;;4984832;28;20082;-84
2023/12/19 05:44:11;;;;;;;8.77;4.55;;;;;;;;;;5000859;28;20065;-83
2023/12/19 05:46:38;;;;;;;9.18;4.50;;;;;;;;;;5001107;28;20014;-84
2023/12/19 05:49:03;;;;;;;8.93;4.30;;;;;;;;;;4983008;28;20018;-84
2023/12/19 05:51:28;;;;;;;9.13;4.10;;;;;;;;;;5004181;28;20144;-83
2023/12/19 05:54:01;;;;;;;10.65;4.28;;;;;;;;;;5004730;28;20482;-85
2023/12/19 05:56:55;;;;;;;;;;;;;;;;;;;;;
2023/12/19 05:59:21;;;;;;;10.02;4.60;;;;;;;;;;5006297;28;20570;-84
2023/12/19 06:02:27;;;;;;;8.20;4.30;;;;;;;;;;4986992;28;20026;-85
2023/12/19 06:04:53;;;;;;;7.57;4.32;;;;;;;;;;4984014;28;20061;-81
2023/12/19 06:07:18;;;;;;;10.75;4.95;;;;;;;;;;5012213;28;20027;-80
2023/12/19 06:09:43;;;;;;;8.07;5.00;;;;;;;;;;5013129;28;20033;-79
2023/12/19 06:12:11;;;;;;;10.40;4.20;;;;;;;;;;5011856;28;20026;-82
2023/12/19 06:14:37;;;;;;;11.68;4.43;;;;;;;;;;5001131;28;20753;-83
2023/12/19 06:17:02;;;;;;;12.50;4.45;;;;;;;;;;4995368;28;20027;-83
2023/12/19 06:19:27;;;;;;;8.43;4.43;;;;;;;;;;4993853;28;20038;-82
2023/12/19 06:21:53;;;;;;;9.40;4.82;;;;;;;;;;4997313;28;20090;-86
2023/12/19 06:24:18;;;;;;;9.52;4.82;;;;;;;;;;4997563;28;20057;-84
2023/12/19 06:26:43;;;;;;;11.55;4.97;;;;;;;;;;4995656;28;20022;-82
2023/12/19 06:29:08;;;;;;;12.55;4.25;;;;;;;;;;4997258;28;20083;-83
2023/12/19 06:31:40;;;;;;;11.70;4.82;;;;;;;;;;4979445;28;20022;-83
2023/12/19 06:34:06;;;;;;;11.00;5.22;;;;;;;;;;4997995;28;20042;-83
2023/12/19 06:36:31;;;;;;;11.70;5.35;;;;;;;;;;4996715;28;20057;-82
2023/12/19 06:38:56;;;;;;;12.10;5.35;;;;;;;;;;4996787;28;20371;-84
2023/12/19 06:41:22;;;;;;;9.00;4.80;;;;;;;;;;4997158;28;20049;-83
2023/12/19 06:43:47;;;;;;;9.40;5.07;;;;;;;;;;4996117;28;20022;-83
2023/12/19 06:46:16;;;;;;;8.33;4.67;;;;;;;;;;4997037;28;20065;-82
2023/12/19 06:48:41;;;;;;;9.02;4.45;;;;;;;;;;4995884;28;20259;-83
2023/12/19 06:51:07;;;;;;;7.40;4.10;;;;;;;;;;4997361;28;20303;-83
2023/12/19 06:53:32;;;;;;;10.15;4.40;;;;;;;;;;4995962;28;20031;-83
2023/12/19 06:55:57;;;;;;;8.38;4.35;;;;;;;;;;4980115;28;20030;-82
2023/12/19 06:58:22;;;;;;;8.07;4.43;;;;;;;;;;4995843;28;20481;-84
2023/12/19 07:00:48;;;;;;;9.85;5.25;;;;;;;;;;4993593;28;20033;-82
2023/12/19 07:03:13;;;;;;;11.83;5.07;;;;;;;;;;4994084;28;20110;-82
2023/12/19 07:05:38;;;;;;;12.33;5.10;;;;;;;;;;4993123;28;20288;-82
2023/12/19 07:08:05;;;;;;;12.32;5.47;;;;;;;;;;4994638;28;20294;-83
2023/12/19 07:10:31;;;;;;;10.13;5.20;;;;;;;;;;4993543;28;20056;-83
2023/12/19 07:12:56;;;;;;;10.45;5.28;;;;;;;;;;4995557;28;20105;-83
2023/12/19 07:15:21;;;;;;;8.60;4.80;;;;;;;;;;4995418;28;20046;-82
2023/12/19 07:17:47;;;;;;;13.10;4.97;;;;;;;;;;4994157;28;20248;-83
2023/12/19 07:20:12;;;;;;;17.70;5.68;;;;;;;;;;4994893;28;20026;-83
2023/12/19 07:22:37;;;;;;;13.85;5.13;;;;;;;;;;4994232;28;20035;-84
2023/12/19 07:25:03;;;;;;;10.52;4.75;;;;;;;;;;4977874;28;20069;-83
2023/12/19 07:27:30;;;;;;;10.32;5.15;;;;;;;;;;4978462;28;20485;-84
2023/12/19 07:29:55;;;;;;;9.45;4.85;;;;;;;;;;4994846;28;20026;-83
2023/12/19 07:32:20;;;;;;;27.83;12.33;;;;;;;;;;4998898;28;20036;-82
2023/12/19 07:34:46;;;;;;;19.90;8.70;;;;;;;;;;4982632;28;20264;-82
2023/12/19 07:37:11;;;;;;;20.05;10.07;;;;;;;;;;5000175;28;20314;-81
2023/12/19 07:39:36;;;;;;;15.88;8.18;;;;;;;;;;4981379;28;20033;-81
2023/12/19 07:42:02;;;;;;;12.63;6.37;;;;;;;;;;4998623;28;20026;-81
2023/12/19 07:44:27;;;;;;;10.98;5.53;;;;;;;;;;4999036;28;20267;-82
2023/12/19 07:46:52;;;;;;;14.50;5.20;;;;;;;;;;4999340;28;20022;-83
2023/12/19 07:49:17;;;;;;;16.67;5.10;;;;;;;;;;4998795;28;20262;-82
2023/12/19 07:51:43;;;;;;;12.50;5.32;;;;;;;;;;4998318;28;20117;-82
2023/12/19 07:54:08;;;;;;;20.73;6.78;;;;;;;;;;4999690;28;20157;-82
2023/12/19 07:56:33;;;;;;;11.83;5.53;;;;;;;;;;4982126;28;20053;-83
2023/12/19 07:58:58;;;;;;;15.45;6.40;;;;;;;;;;4981887;28;20256;-84
2023/12/19 08:01:25;;;;;;;11.45;5.22;;;;;;;;;;5000032;28;20032;-81
2023/12/19 08:03:50;;;;;;;7.68;4.13;;;;;;;;;;4999589;28;20393;-82
2023/12/19 08:06:16;;;;;;;8.15;4.53;;;;;;;;;;4999720;28;20101;-83
2023/12/19 08:08:42;;;;;;;9.18;4.82;;;;;;;;;;4981654;28;20494;-82
2023/12/19 08:11:07;;;;;;;9.27;4.88;;;;;;;;;;4999097;28;20033;-83
2023/12/19 08:13:34;;;;;;;10.32;4.90;;;;;;;;;;4998819;28;20034;-83
2023/12/19 08:15:59;;;;;;;8.77;4.60;;;;;;;;;;4998803;28;20030;-83
2023/12/19 08:18:24;;;;;;;9.48;4.53;;;;;;;;;;4997793;28;20065;-83
2023/12/19 08:20:50;;;;;;;8.57;4.60;;;;;;;;;;4982622;28;20025;-82
2023/12/19 08:23:15;;;;;;;11.18;4.78;;;;;;;;;;4998764;28;20030;-83
2023/12/19 08:25:41;;;;;;;8.25;4.47;;;;;;;;;;4997292;28;20058;-82
2023/12/19 08:28:10;;;;;;;9.32;4.47;;;;;;;;;;4998799;28;20026;-81
2023/12/19 08:30:35;;;;;;;9.63;3.88;;;;;;;;;;4998301;28;20056;-81
2023/12/19 08:33:02;;;;;;;7.90;4.22;;;;;;;;;;4999354;28;20109;-81
2023/12/19 08:35:27;;;;;;;8.43;4.70;;;;;;;;;;4999037;28;20030;-82
2023/12/19 08:37:52;;;;;;;10.60;4.80;;;;;;;;;;5000537;28;20509;-81
2023/12/19 08:40:19;;;;;;;9.30;4.35;;;;;;;;;;4997627;28;20762;-82
2023/12/19 08:42:44;;;;;;;8.73;4.13;;;;;;;;;;4998693;28;20106;-82
2023/12/19 08:45:17;;;;;;;9.50;4.45;;;;;;;;;;5000191;28;20092;-81
2023/12/19 08:47:44;;;;;;;11.90;5.30;;;;;;;;;;4982964;28;20113;-81
2023/12/19 08:50:10;;;;;;;7.78;4.20;;;;;;;;;;5000194;28;20457;-82
2023/12/19 08:52:38;;;;;;;10.32;4.72;;;;;;;;;;4983483;28;20027;-82
2023/12/19 08:55:06;;;;;;;12.35;4.63;;;;;;;;;;5001433;28;20076;-82
2023/12/19 08:57:32;;;;;;;10.95;4.22;;;;;;;;;;4984258;28;20482;-82
2023/12/19 08:59:58;;;;;;;8.93;4.53;;;;;;;;;;5001698;28;20220;-82
2023/12/19 09:02:23;;;;;;;12.80;5.13;;;;;;;;;;5001495;28;20041;-80
2023/12/19 09:04:48;;;;;;;8.27;4.27;;;;;;;;;;5001233;28;20268;-83
2023/12/19 09:07:13;;;;;;;8.10;4.13;;;;;;;;;;4998233;28;20248;-81
2023/12/19 09:09:38;;;;;;;12.20;4.60;;;;;;;;;;5001111;28;20022;-84
2023/12/19 09:12:04;;;;;;;7.03;4.03;;;;;;;;;;5001186;28;20263;-84
2023/12/19 09:14:29;;;;;;;42.80;14.93;;;;;;;;;;4998938;28;20049;-84
2023/12/19 09:16:54;;;;;;;14.48;6.38;;;;;;;;;;4999933;28;20026;-84
2023/12/19 09:19:20;;;;;;;10.95;5.63;;;;;;;;;;4998735;28;20153;-83
2023/12/19 09:21:45;;;;;;;11.87;5.00;;;;;;;;;;4999758;28;20524;-84
2023/12/19 09:24:10;;;;;;;10.68;5.20;;;;;;;;;;4982468;28;20771;-84
2023/12/19 09:26:39;;;;;;;13.38;5.22;;;;;;;;;;4999759;28;20023;-84
2023/12/19 09:29:06;;;;;;;11.88;4.72;;;;;;;;;;4998713;28;20045;-85
2023/12/19 09:31:31;;;;;;;10.27;4.45;;;;;;;;;;4983232;28;20031;-85
2023/12/19 09:33:56;;;;;;;13.35;4.28;;;;;;;;;;4999971;28;20433;-84
2023/12/19 09:36:24;;;;;;;9.35;4.60;;;;;;;;;;4999793;28;20022;-85
2023/12/19 09:38:49;;;;;;;11.48;4.40;;;;;;;;;;4999865;28;20025;-85
2023/12/19 09:41:15;;;;;;;14.10;4.60;;;;;;;;;;4999689;28;20086;-86
2023/12/19 09:43:41;;;;;;;7.60;4.32;;;;;;;;;;4982299;28;20030;-85
2023/12/19 09:46:07;;;;;;;11.90;4.47;;;;;;;;;;4999235;28;20030;-84
2023/12/19 09:48:34;;;;;;;7.93;4.30;;;;;;;;;;4981630;28;20486;-85
2023/12/19 09:51:05;;;;;;;6.05;3.85;;;;;;;;;;4999340;28;20053;-85
2023/12/19 09:53:34;;;;;;;6.75;3.95;;;;;;;;;;4997105;28;20394;-84
2023/12/19 09:56:01;;;;;;;8.13;4.13;;;;;;;;;;4999189;28;20015;-84
2023/12/19 09:58:28;;;;;;;8.30;4.70;;;;;;;;;;4998935;28;20497;-85
2023/12/19 10:00:56;;;;;;;7.97;4.28;;;;;;;;;;4980622;28;20034;-85
2023/12/19 10:03:21;;;;;;;8.13;4.47;;;;;;;;;;5002983;28;20034;-84
2023/12/19 10:05:47;;;;;;;7.85;4.40;;;;;;;;;;5018277;28;20038;-82
2023/12/19 10:08:13;;;;;;;11.27;5.30;;;;;;;;;;5018654;28;20077;-83
2023/12/19 10:10:47;;;;;;;9.35;4.57;;;;;;;;;;5013026;28;20034;-84
2023/12/19 10:13:24;;;;;;;;;;;;;;;;;;5002340;28;20023;-83
2023/12/19 10:16:08;;;;;;;8.82;4.25;;;;;;;;;;5000187;28;19914;-83
2023/12/19 10:18:34;;;;;;;10.98;4.25;;;;;;;;;;4985779;28;20026;-83
2023/12/19 10:21:04;;;;;;;7.70;4.38;;;;;;;;;;5005070;28;20457;-84
2023/12/19 10:23:36;;;;;;;7.93;3.97;;;;;;;;;;5003352;28;20023;-82
2023/12/19 10:26:03;;;;;;;9.85;4.25;;;;;;;;;;5000093;28;20023;-82
2023/12/19 10:28:30;;;;;;;14.20;4.80;;;;;;;;;;5000466;28;20049;-84
2023/12/19 10:31:14;;;;;;;9.23;4.57;;;;;;;;;;4979634;28;20023;-79
2023/12/19 10:33:50;;;;;;;9.20;4.22;;;;;;;;;;4977434;28;20030;-77
2023/12/19 10:36:30;;;;;;;8.18;3.97;;;;;;;;;;4994541;28;20426;-76
2023/12/19 10:38:57;;;;;;;7.53;4.03;;;;;;;;;;4976989;28;20026;-76
2023/12/19 10:41:29;;;;;;;8.88;3.90;;;;;;;;;;4993796;28;20608;-76
2023/12/19 10:43:56;;;;;;;14.43;4.70;;;;;;;;;;4996091;28;20049;-77
2023/12/19 10:46:32;;;;;;;6.82;4.00;;;;;;;;;;4995982;28;20026;-77
2023/12/19 10:48:59;;;;;;;9.40;4.88;;;;;;;;;;4996741;28;20359;-84
2023/12/19 10:51:35;;;;;;;7.80;4.35;;;;;;;;;;4977726;28;20050;-76
2023/12/19 10:54:08;;;;;;;7.63;4.20;;;;;;;;;;4995744;28;20026;-76
2023/12/19 10:56:58;;;;;;;12.77;5.97;;;;;;;;;;4994524;28;20398;-75
2023/12/19 10:59:33;;;;;;;12.82;4.72;;;;;;;;;;4994320;28;20025;-78
2023/12/19 11:02:04;;;;;;;8.30;4.50;;;;;;;;;;4993798;28;20165;-77
2023/12/19 11:04:32;;;;;;;9.80;5.03;;;;;;;;;;4994105;28;20448;-77
2023/12/19 11:07:02;;;;;;;13.73;4.95;;;;;;;;;;4998949;28;20018;-77
2023/12/19 11:09:34;;;;;;;9.27;4.82;;;;;;;;;;4999048;28;20026;-77
2023/12/19 11:12:00;;;;;;;8.20;4.55;;;;;;;;;;4999010;28;20034;-78
2023/12/19 11:14:26;;;;;;;13.13;4.90;;;;;;;;;;5000271;28;20026;-78
2023/12/19 11:17:09;;;;;;;8.68;4.82;;;;;;;;;;5000120;28;20109;-81
2023/12/19 11:19:44;;;;;;;9.20;4.45;;;;;;;;;;5002360;28;20022;-81
2023/12/19 11:22:18;;;;;;;8.15;4.32;;;;;;;;;;5003335;28;20389;-82
2023/12/19 11:24:52;;;;;;;13.63;4.43;;;;;;;;;;5002447;28;20150;-80
2023/12/19 11:27:25;;;;;;;8.05;4.07;;;;;;;;;;5001495;28;20026;-80
2023/12/19 11:29:53;;;;;;;9.17;4.57;;;;;;;;;;5002094;28;20030;-82
2023/12/19 11:32:28;;;;;;;7.40;4.45;;;;;;;;;;5001864;28;20057;-80
2023/12/19 11:35:09;;;;;;;8.45;4.40;;;;;;;;;;5000631;28;20026;-81
2023/12/19 11:37:36;;;;;;;12.60;3.72;;;;;;;;;;4983299;28;20030;-81
2023/12/19 11:40:03;;;;;;;16.17;4.32;;;;;;;;;;4983064;28;20026;-81
2023/12/19 11:42:37;;;;;;;7.38;4.47;;;;;;;;;;5001907;28;20026;-85
2023/12/19 11:45:18;;;;;;;9.60;4.63;;;;;;;;;;5003883;28;20057;-84
2023/12/19 11:47:50;;;;;;;9.75;4.50;;;;;;;;;;5004257;28;20037;-84
2023/12/19 11:50:40;;;;;;;8.15;4.60;;;;;;;;;;5003826;28;20030;-84
2023/12/19 11:53:06;;;;;;;10.18;4.68;;;;;;;;;;5005096;28;20014;-84
2023/12/19 11:55:31;;;;;;;7.50;4.70;;;;;;;;;;5004263;28;20029;-84
2023/12/19 11:58:10;;;;;;;9.30;4.70;;;;;;;;;;5005122;28;20030;-84
2023/12/19 12:00:35;;;;;;;9.75;4.40;;;;;;;;;;5004491;28;20422;-83
2023/12/19 12:03:07;;;;;;;9.50;4.28;;;;;;;;;;5004563;28;20037;-84
2023/12/19 12:05:33;;;;;;;13.30;4.40;;;;;;;;;;4987251;28;20022;-83
2023/12/19 12:07:59;;;;;;;10.63;4.57;;;;;;;;;;5005118;28;20078;-84
2023/12/19 12:10:26;;;;;;;9.52;4.28;;;;;;;;;;5004670;28;20034;-85
2023/12/19 12:12:53;;;;;;;6.38;4.20;;;;;;;;;;5004744;28;20049;-84
2023/12/19 12:15:25;;;;;;;11.13;4.03;;;;;;;;;;5005243;28;20094;-82
2023/12/19 12:18:04;;;;;;;7.75;4.00;;;;;;;;;;5005565;28;20037;-83
2023/12/19 12:20:34;;;;;;;8.18;3.83;;;;;;;;;;4990247;28;20113;-84
2023/12/19 12:23:00;;;;;;;9.48;4.22;;;;;;;;;;4988802;28;20038;-85
2023/12/19 12:25:25;;;;;;;8.18;3.92;;;;;;;;;;4986779;28;20065;-84
2023/12/19 12:27:55;;;;;;;8.38;3.80;;;;;;;;;;4987701;28;20026;-84
2023/12/19 12:30:22;;;;;;;8.32;3.17;;;;;;;;;;5005371;28;20072;-85
2023/12/19 12:32:48;;;;;;;7.60;3.88;;;;;;;;;;5003973;28;20041;-83
2023/12/19 12:35:31;;;;;;;11.80;4.20;;;;;;;;;;5004616;28;20030;-84
2023/12/19 12:38:01;;;;;;;10.38;4.38;;;;;;;;;;4986606;28;20026;-84
2023/12/19 12:40:27;;;;;;;13.55;4.68;;;;;;;;;;5004817;28;20018;-82
2023/12/19 12:43:13;;;;;;;10.07;4.20;;;;;;;;;;5002360;28;20065;-83
2023/12/19 12:45:38;;;;;;;8.15;3.97;;;;;;;;;;4985238;28;20210;-84
2023/12/19 12:48:12;;;;;;;13.30;4.30;;;;;;;;;;5003392;28;20547;-83
2023/12/19 12:50:38;;;;;;;8.27;3.85;;;;;;;;;;5003382;28;20034;-85
2023/12/19 12:53:03;;;;;;;9.57;3.83;;;;;;;;;;5002138;28;20026;-84
2023/12/19 12:55:28;;;;;;;18.00;4.57;;;;;;;;;;4987292;28;20283;-84
2023/12/19 12:58:02;;;;;;;13.77;4.43;;;;;;;;;;5004497;28;20030;-84
2023/12/19 13:00:28;;;;;;;7.75;3.47;;;;;;;;;;5002851;28;20287;-83
2023/12/19 13:02:54;;;;;;;6.40;2.78;;;;;;;;;;5002769;28;20023;-84
2023/12/19 13:05:19;;;;;;;6.38;2.78;;;;;;;;;;5001377;28;20026;-84
2023/12/19 13:07:45;;;;;;;18.37;2.97;;;;;;;;;;5001244;28;20084;-82
2023/12/19 13:10:10;;;;;;;4.55;2.38;;;;;;;;;;5001994;28;20256;-84
2023/12/19 13:12:36;;;;;;;4.33;1.93;;;;;;;;;;5001292;28;20093;-84
2023/12/19 13:15:02;;;;;;;3.72;1.83;;;;;;;;;;5000850;28;20263;-84
2023/12/19 13:17:27;;;;;;;3.60;2.00;;;;;;;;;;5000587;28;20026;-83
2023/12/19 13:19:53;;;;;;;4.60;1.80;;;;;;;;;;5000999;28;20027;-82
2023/12/19 13:22:18;;;;;;;5.07;1.73;;;;;;;;;;4999270;28;20263;-84
2023/12/19 13:24:43;;;;;;;2.00;1.27;;;;;;;;;;5000084;28;20034;-83
2023/12/19 13:27:08;;;;;;;3.50;1.30;;;;;;;;;;5000128;28;20295;-83
2023/12/19 13:29:33;;;;;;;2.93;1.40;;;;;;;;;;4999269;28;20271;-83
2023/12/19 13:31:59;;;;;;;2.27;1.13;;;;;;;;;;5002400;28;20260;-83
2023/12/19 13:34:27;;;;;;;3.38;1.50;;;;;;;;;;5005739;28;20343;-82
2023/12/19 13:36:52;;;;;;;2.10;1.20;;;;;;;;;;4999904;28;20027;-83
2023/12/19 13:39:20;;;;;;;2.05;1.20;;;;;;;;;;5001031;28;20037;-82
2023/12/19 13:41:45;;;;;;;1.20;0.90;;;;;;;;;;5002281;28;20102;-83
2023/12/19 13:44:10;;;;;;;2.70;1.00;;;;;;;;;;5000302;28;20034;-84
2023/12/19 13:46:36;;;;;;;1.50;1.10;;;;;;;;;;5002091;28;20068;-83
2023/12/19 13:49:01;;;;;;;1.80;1.10;;;;;;;;;;5000012;28;20030;-84
2023/12/19 13:51:26;;;;;;;1.70;0.87;;;;;;;;;;5004919;28;20263;-84
2023/12/19 13:53:51;;;;;;;2.07;0.93;;;;;;;;;;5018777;28;20264;-82
2023/12/19 13:56:19;;;;;;;2.95;1.15;;;;;;;;;;5017492;28;20280;-80
2023/12/19 13:58:45;;;;;;;1.40;1.15;;;;;;;;;;5007668;28;20053;-83
2023/12/19 14:01:10;;;;;;;2.53;1.33;;;;;;;;;;5002796;28;20101;-83
2023/12/19 14:03:38;;;;;;;1.60;1.20;;;;;;;;;;4986544;28;20676;-83
2023/12/19 14:06:03;;;;;;;2.53;1.20;;;;;;;;;;5002899;28;20248;-84
2023/12/19 14:08:28;;;;;;;2.08;1.00;;;;;;;;;;5002463;28;20135;-86
2023/12/19 14:10:54;;;;;;;1.73;1.17;;;;;;;;;;5000950;28;20026;-81
2023/12/19 14:13:19;;;;;;;1.88;1.10;;;;;;;;;;5003225;28;20026;-82
2023/12/19 14:15:45;;;;;;;1.90;1.10;;;;;;;;;;5007080;28;20061;-85
2023/12/19 14:18:10;;;;;;;1.40;1.10;;;;;;;;;;5006319;28;20251;-83
2023/12/19 14:20:35;;;;;;;2.92;1.90;;;;;;;;;;5007864;28;20037;-83
2023/12/19 14:23:01;;;;;;;1.77;1.00;;;;;;;;;;5006804;28;20374;-84
2023/12/19 14:25:27;;;;;;;2.03;1.20;;;;;;;;;;5007635;28;20252;-82
2023/12/19 14:27:52;;;;;;;1.53;1.00;;;;;;;;;;5005514;28;20060;-80
2023/12/19 14:30:18;;;;;;;2.88;1.10;;;;;;;;;;5000242;28;20276;-83
2023/12/19 14:32:44;;;;;;;1.60;1.00;;;;;;;;;;4987047;28;20094;-83
2023/12/19 14:35:09;;;;;;;1.83;1.10;;;;;;;;;;5003855;28;20323;-82
2023/12/19 14:37:35;;;;;;;3.05;1.27;;;;;;;;;;5000597;28;20279;-81